sensor_id;sensor_type;location;lat;lon;timestamp;temperature;humidity
4647;DHT22;2336;47.822;7.564;2024-01-15T00:01:51;-3.10;99.90
4647;DHT22;2336;47.822;7.564;2024-01-15T00:04:18;-3.20;99.90
4647;DHT22;2336;47.822;7.564;2024-01-15T00:06:45;-3.20;99.90
4647;DHT22;2336;47.822;7.564;2024-01-15T00:09:12;-3.20;99.90
4647;DHT22;2336;47.822;7.564;2024-01-15T00:11:40;-3.20;99.90
4647;DHT22;2336;47.822;7.564;2024-01-15T00:14:06;-3.30;99.90
4647;DHT22;2336;47.822;7.564;2024-01-15T00:16:33;-3.30;99.90
4647;DHT22;2336;47.822;7.564;2024-01-15T00:19:00;-3.30;99.90
4647;DHT22;2336;47.822;7.564;2024-01-15T00:21:27;-3.30;99.90
4647;DHT22;2336;47.822;7.564;2024-01-15T00:23:53;-3.30;99.90
4647;DHT22;2336;47.822;7.564;2024-01-15T00:26:20;-3.40;99.90
4647;DHT22;2336;47.822;7.564;2024-01-15T00:28:48;-3.40;99.90
4647;DHT22;2336;47.822;7.564;2024-01-15T00:31:16;-3.30;99.90
4647;DHT22;2336;47.822;7.564;2024-01-15T00:33:43;-3.30;99.90
4647;DHT22;2336;47.822;7.564;2024-01-15T00:36:09;-3.40;99.90
4647;DHT22;2336;47.822;7.564;2024-01-15T00:38:36;-3.50;99.90
4647;DHT22;2336;47.822;7.564;2024-01-15T00:41:03;-3.50;99.90
4647;DHT22;2336;47.822;7.564;2024-01-15T00:43:30;-3.50;99.90
4647;DHT22;2336;47.822;7.564;2024-01-15T00:46:01;-3.50;99.90
4647;DHT22;2336;47.822;7.564;2024-01-15T00:48:27;-3.50;99.90
4647;DHT22;2336;47.822;7.564;2024-01-15T00:50:54;-3.40;99.90
4647;DHT22;2336;47.822;7.564;2024-01-15T00:53:21;-3.40;99.90
4647;DHT22;2336;47.822;7.564;2024-01-15T00:55:48;-3.40;99.90
4647;DHT22;2336;47.822;7.564;2024-01-15T00:58:15;-3.30;99.90
4647;DHT22;2336;47.822;7.564;2024-01-15T01:00:42;-3.30;99.90
4647;DHT22;2336;47.822;7.564;2024-01-15T01:03:10;-3.20;99.90
4647;DHT22;2336;47.822;7.564;2024-01-15T01:05:37;-3.10;99.90
4647;DHT22;2336;47.822;7.564;2024-01-15T01:08:04;-3.00;99.90
4647;DHT22;2336;47.822;7.564;2024-01-15T01:10:31;-2.80;99.90
4647;DHT22;2336;47.822;7.564;2024-01-15T01:12:58;-2.80;99.90
4647;DHT22;2336;47.822;7.564;2024-01-15T01:15:24;-2.80;99.90
4647;DHT22;2336;47.822;7.564;2024-01-15T01:17:51;-2.70;99.90
4647;DHT22;2336;47.822;7.564;2024-01-15T01:20:19;-2.70;99.90
4647;DHT22;2336;47.822;7.564;2024-01-15T01:22:46;-2.70;99.90
4647;DHT22;2336;47.822;7.564;2024-01-15T01:25:13;-2.60;99.90
4647;DHT22;2336;47.822;7.564;2024-01-15T01:27:40;-2.70;99.90
4647;DHT22;2336;47.822;7.564;2024-01-15T01:30:07;-2.70;99.90
4647;DHT22;2336;47.822;7.564;2024-01-15T01:32:35;-2.60;99.90
4647;DHT22;2336;47.822;7.564;2024-01-15T01:35:02;-2.60;99.90
4647;DHT22;2336;47.822;7.564;2024-01-15T01:37:30;-2.60;99.90
4647;DHT22;2336;47.822;7.564;2024-01-15T01:39:57;-2.60;99.90
4647;DHT22;2336;47.822;7.564;2024-01-15T01:42:24;-2.60;99.90
4647;DHT22;2336;47.822;7.564;2024-01-15T01:44:50;-2.60;99.90
4647;DHT22;2336;47.822;7.564;2024-01-15T01:47:17;-2.50;99.90
4647;DHT22;2336;47.822;7.564;2024-01-15T01:49:45;-2.50;99.90
4647;DHT22;2336;47.822;7.564;2024-01-15T01:52:13;-2.40;99.90
4647;DHT22;2336;47.822;7.564;2024-01-15T01:54:41;-2.40;99.90
4647;DHT22;2336;47.822;7.564;2024-01-15T01:57:08;-2.40;99.90
4647;DHT22;2336;47.822;7.564;2024-01-15T01:59:35;-2.40;99.90
4647;DHT22;2336;47.822;7.564;2024-01-15T02:02:04;-2.30;99.90
4647;DHT22;2336;47.822;7.564;2024-01-15T02:04:32;-2.20;99.90
4647;DHT22;2336;47.822;7.564;2024-01-15T02:06:59;-2.10;99.90
4647;DHT22;2336;47.822;7.564;2024-01-15T02:09:25;-2.10;99.90
4647;DHT22;2336;47.822;7.564;2024-01-15T02:11:53;-2.00;99.90
4647;DHT22;2336;47.822;7.564;2024-01-15T02:14:20;-2.00;99.90
4647;DHT22;2336;47.822;7.564;2024-01-15T02:16:47;-1.90;99.90
4647;DHT22;2336;47.822;7.564;2024-01-15T02:19:15;-1.90;99.90
4647;DHT22;2336;47.822;7.564;2024-01-15T02:21:42;-1.80;99.90
4647;DHT22;2336;47.822;7.564;2024-01-15T02:24:10;-1.80;99.90
4647;DHT22;2336;47.822;7.564;2024-01-15T02:26:37;-1.70;99.90
4647;DHT22;2336;47.822;7.564;2024-01-15T02:29:05;-1.70;99.90
4647;DHT22;2336;47.822;7.564;2024-01-15T02:31:33;-1.60;99.90
4647;DHT22;2336;47.822;7.564;2024-01-15T02:34:00;-1.50;99.90
4647;DHT22;2336;47.822;7.564;2024-01-15T02:36:26;-1.50;99.90
4647;DHT22;2336;47.822;7.564;2024-01-15T02:38:53;-1.50;99.90
4647;DHT22;2336;47.822;7.564;2024-01-15T02:41:21;-1.40;99.90
4647;DHT22;2336;47.822;7.564;2024-01-15T02:43:48;-1.40;99.90
4647;DHT22;2336;47.822;7.564;2024-01-15T02:46:15;-1.40;99.90
4647;DHT22;2336;47.822;7.564;2024-01-15T02:48:42;-1.40;99.90
4647;DHT22;2336;47.822;7.564;2024-01-15T02:51:09;-1.40;99.90
4647;DHT22;2336;47.822;7.564;2024-01-15T02:53:36;-1.40;99.90
4647;DHT22;2336;47.822;7.564;2024-01-15T02:56:03;-1.40;99.90
4647;DHT22;2336;47.822;7.564;2024-01-15T02:58:31;-1.40;99.90
4647;DHT22;2336;47.822;7.564;2024-01-15T03:00:58;-1.40;99.90
4647;DHT22;2336;47.822;7.564;2024-01-15T03:03:25;-1.40;99.90
4647;DHT22;2336;47.822;7.564;2024-01-15T03:05:52;-1.40;99.90
4647;DHT22;2336;47.822;7.564;2024-01-15T03:08:19;-1.30;99.90
4647;DHT22;2336;47.822;7.564;2024-01-15T03:10:45;-1.30;99.90
4647;DHT22;2336;47.822;7.564;2024-01-15T03:13:12;-1.30;99.90
4647;DHT22;2336;47.822;7.564;2024-01-15T03:15:40;-1.30;99.90
4647;DHT22;2336;47.822;7.564;2024-01-15T03:18:07;-1.20;99.90
4647;DHT22;2336;47.822;7.564;2024-01-15T03:20:34;-1.10;99.90
4647;DHT22;2336;47.822;7.564;2024-01-15T03:23:00;-1.00;99.90
4647;DHT22;2336;47.822;7.564;2024-01-15T03:25:27;-1.00;99.90
4647;DHT22;2336;47.822;7.564;2024-01-15T03:27:54;-0.90;99.90
4647;DHT22;2336;47.822;7.564;2024-01-15T03:30:21;-0.90;99.90
4647;DHT22;2336;47.822;7.564;2024-01-15T03:32:49;-0.90;99.90
4647;DHT22;2336;47.822;7.564;2024-01-15T03:35:16;-0.90;99.90
4647;DHT22;2336;47.822;7.564;2024-01-15T03:37:43;-0.80;99.90
4647;DHT22;2336;47.822;7.564;2024-01-15T03:40:10;-0.80;99.90
4647;DHT22;2336;47.822;7.564;2024-01-15T03:42:38;-0.80;99.90
4647;DHT22;2336;47.822;7.564;2024-01-15T03:45:05;-0.80;99.90
4647;DHT22;2336;47.822;7.564;2024-01-15T03:47:32;-0.80;99.90
4647;DHT22;2336;47.822;7.564;2024-01-15T03:50:00;-0.80;99.90
4647;DHT22;2336;47.822;7.564;2024-01-15T03:52:27;-0.70;99.90
4647;DHT22;2336;47.822;7.564;2024-01-15T03:54:54;-0.70;99.90
4647;DHT22;2336;47.822;7.564;2024-01-15T03:57:21;-0.70;99.90
4647;DHT22;2336;47.822;7.564;2024-01-15T03:59:47;-0.60;99.90
4647;DHT22;2336;47.822;7.564;2024-01-15T04:02:14;-0.60;99.90
4647;DHT22;2336;47.822;7.564;2024-01-15T04:04:41;-0.60;99.90
4647;DHT22;2336;47.822;7.564;2024-01-15T04:07:10;-0.60;99.90
4647;DHT22;2336;47.822;7.564;2024-01-15T04:09:36;-0.60;99.90
4647;DHT22;2336;47.822;7.564;2024-01-15T04:12:04;-0.60;99.90
4647;DHT22;2336;47.822;7.564;2024-01-15T04:14:31;-0.60;99.90
4647;DHT22;2336;47.822;7.564;2024-01-15T04:16:57;-0.60;99.90
4647;DHT22;2336;47.822;7.564;2024-01-15T04:19:24;-0.60;99.90
4647;DHT22;2336;47.822;7.564;2024-01-15T04:21:51;-0.60;99.90
4647;DHT22;2336;47.822;7.564;2024-01-15T04:24:19;-0.50;99.90
4647;DHT22;2336;47.822;7.564;2024-01-15T04:26:46;-0.50;99.90
4647;DHT22;2336;47.822;7.564;2024-01-15T04:29:13;-0.50;99.90
4647;DHT22;2336;47.822;7.564;2024-01-15T04:31:40;-0.40;99.90
4647;DHT22;2336;47.822;7.564;2024-01-15T04:34:07;-0.50;99.90
4647;DHT22;2336;47.822;7.564;2024-01-15T04:36:38;-0.50;99.90
4647;DHT22;2336;47.822;7.564;2024-01-15T04:39:05;-0.50;99.90
4647;DHT22;2336;47.822;7.564;2024-01-15T04:41:34;-0.40;99.90
4647;DHT22;2336;47.822;7.564;2024-01-15T04:44:00;-0.40;99.90
4647;DHT22;2336;47.822;7.564;2024-01-15T04:46:27;-0.40;99.90
4647;DHT22;2336;47.822;7.564;2024-01-15T04:48:54;-0.40;99.90
4647;DHT22;2336;47.822;7.564;2024-01-15T04:51:21;-0.40;99.90
4647;DHT22;2336;47.822;7.564;2024-01-15T04:53:47;-0.40;99.90
4647;DHT22;2336;47.822;7.564;2024-01-15T04:56:14;-0.40;99.90
4647;DHT22;2336;47.822;7.564;2024-01-15T04:58:42;-0.40;99.90
4647;DHT22;2336;47.822;7.564;2024-01-15T05:01:09;-0.40;99.90
4647;DHT22;2336;47.822;7.564;2024-01-15T05:03:36;-0.40;99.90
4647;DHT22;2336;47.822;7.564;2024-01-15T05:06:03;-0.40;99.90
4647;DHT22;2336;47.822;7.564;2024-01-15T05:08:31;-0.40;99.90
4647;DHT22;2336;47.822;7.564;2024-01-15T05:10:58;-0.40;99.90
4647;DHT22;2336;47.822;7.564;2024-01-15T05:13:24;-0.40;99.90
4647;DHT22;2336;47.822;7.564;2024-01-15T05:15:52;-0.40;99.90
4647;DHT22;2336;47.822;7.564;2024-01-15T05:18:19;-0.40;99.90
4647;DHT22;2336;47.822;7.564;2024-01-15T05:20:46;-0.40;99.90
4647;DHT22;2336;47.822;7.564;2024-01-15T05:23:13;-0.40;99.90
4647;DHT22;2336;47.822;7.564;2024-01-15T05:25:39;-0.40;99.90
4647;DHT22;2336;47.822;7.564;2024-01-15T05:28:06;-0.30;99.90
4647;DHT22;2336;47.822;7.564;2024-01-15T05:30:33;-0.30;99.90
4647;DHT22;2336;47.822;7.564;2024-01-15T05:33:01;-0.30;99.90
4647;DHT22;2336;47.822;7.564;2024-01-15T05:35:28;-0.40;99.90
4647;DHT22;2336;47.822;7.564;2024-01-15T05:37:55;-0.40;99.90
4647;DHT22;2336;47.822;7.564;2024-01-15T05:40:22;-0.50;99.90
4647;DHT22;2336;47.822;7.564;2024-01-15T05:42:49;-0.50;99.90
4647;DHT22;2336;47.822;7.564;2024-01-15T05:45:15;-0.50;99.90
4647;DHT22;2336;47.822;7.564;2024-01-15T05:47:42;-0.50;99.90
4647;DHT22;2336;47.822;7.564;2024-01-15T05:50:11;-0.60;99.90
4647;DHT22;2336;47.822;7.564;2024-01-15T05:52:38;-0.60;99.90
4647;DHT22;2336;47.822;7.564;2024-01-15T05:55:05;-0.60;99.90
4647;DHT22;2336;47.822;7.564;2024-01-15T05:57:32;-0.60;99.90
4647;DHT22;2336;47.822;7.564;2024-01-15T05:59:58;-0.60;99.90
4647;DHT22;2336;47.822;7.564;2024-01-15T06:02:25;-0.60;99.90
4647;DHT22;2336;47.822;7.564;2024-01-15T06:04:52;-0.60;99.90
4647;DHT22;2336;47.822;7.564;2024-01-15T06:07:20;-0.50;99.90
4647;DHT22;2336;47.822;7.564;2024-01-15T06:09:48;-0.50;99.90
4647;DHT22;2336;47.822;7.564;2024-01-15T06:12:15;-0.50;99.90
4647;DHT22;2336;47.822;7.564;2024-01-15T06:14:41;-0.50;99.90
4647;DHT22;2336;47.822;7.564;2024-01-15T06:17:08;-0.50;99.90
4647;DHT22;2336;47.822;7.564;2024-01-15T06:19:35;-0.40;99.90
4647;DHT22;2336;47.822;7.564;2024-01-15T06:22:02;-0.40;99.90
4647;DHT22;2336;47.822;7.564;2024-01-15T06:24:30;-0.40;99.90
4647;DHT22;2336;47.822;7.564;2024-01-15T06:26:57;-0.40;99.90
4647;DHT22;2336;47.822;7.564;2024-01-15T06:29:26;-0.40;99.90
4647;DHT22;2336;47.822;7.564;2024-01-15T06:31:53;-0.40;99.90
4647;DHT22;2336;47.822;7.564;2024-01-15T06:34:19;-0.40;99.90
4647;DHT22;2336;47.822;7.564;2024-01-15T06:36:46;-0.40;99.90
4647;DHT22;2336;47.822;7.564;2024-01-15T06:39:13;-0.30;99.90
4647;DHT22;2336;47.822;7.564;2024-01-15T06:41:41;-0.40;99.90
4647;DHT22;2336;47.822;7.564;2024-01-15T06:44:10;-0.40;99.90
4647;DHT22;2336;47.822;7.564;2024-01-15T06:46:37;-0.30;99.90
4647;DHT22;2336;47.822;7.564;2024-01-15T06:49:08;-0.30;99.90
4647;DHT22;2336;47.822;7.564;2024-01-15T06:51:35;-0.30;99.90
4647;DHT22;2336;47.822;7.564;2024-01-15T06:54:01;-0.40;99.90
4647;DHT22;2336;47.822;7.564;2024-01-15T06:56:28;-0.30;99.90
4647;DHT22;2336;47.822;7.564;2024-01-15T06:58:56;-0.30;99.90
4647;DHT22;2336;47.822;7.564;2024-01-15T07:01:22;-0.30;99.90
4647;DHT22;2336;47.822;7.564;2024-01-15T07:03:49;-0.40;99.90
4647;DHT22;2336;47.822;7.564;2024-01-15T07:06:16;-0.40;99.90
4647;DHT22;2336;47.822;7.564;2024-01-15T07:08:43;-0.40;99.90
4647;DHT22;2336;47.822;7.564;2024-01-15T07:11:10;-0.40;99.90
4647;DHT22;2336;47.822;7.564;2024-01-15T07:13:37;-0.40;99.90
4647;DHT22;2336;47.822;7.564;2024-01-15T07:16:05;-0.30;99.90
4647;DHT22;2336;47.822;7.564;2024-01-15T07:18:32;-0.30;99.90
4647;DHT22;2336;47.822;7.564;2024-01-15T07:20:59;-0.30;99.90
4647;DHT22;2336;47.822;7.564;2024-01-15T07:23:27;-0.30;99.90
4647;DHT22;2336;47.822;7.564;2024-01-15T07:25:53;-0.20;99.90
4647;DHT22;2336;47.822;7.564;2024-01-15T07:28:20;-0.20;99.90
4647;DHT22;2336;47.822;7.564;2024-01-15T07:30:47;-0.20;99.90
4647;DHT22;2336;47.822;7.564;2024-01-15T07:33:15;-0.20;99.90
4647;DHT22;2336;47.822;7.564;2024-01-15T07:35:42;-0.20;99.90
4647;DHT22;2336;47.822;7.564;2024-01-15T07:38:09;-0.20;99.90
4647;DHT22;2336;47.822;7.564;2024-01-15T07:40:37;-0.20;99.90
4647;DHT22;2336;47.822;7.564;2024-01-15T07:43:04;-0.10;99.90
4647;DHT22;2336;47.822;7.564;2024-01-15T07:45:31;-0.10;99.90
4647;DHT22;2336;47.822;7.564;2024-01-15T07:47:58;-0.10;99.90
4647;DHT22;2336;47.822;7.564;2024-01-15T07:50:26;-0.10;99.90
4647;DHT22;2336;47.822;7.564;2024-01-15T07:52:52;-0.10;99.90
4647;DHT22;2336;47.822;7.564;2024-01-15T07:55:19;-0.10;99.90
4647;DHT22;2336;47.822;7.564;2024-01-15T07:57:46;-0.10;99.90
4647;DHT22;2336;47.822;7.564;2024-01-15T08:00:13;-0.10;99.90
4647;DHT22;2336;47.822;7.564;2024-01-15T08:02:40;-0.10;99.90
4647;DHT22;2336;47.822;7.564;2024-01-15T08:05:07;-0.10;99.90
4647;DHT22;2336;47.822;7.564;2024-01-15T08:07:35;-0.10;99.90
4647;DHT22;2336;47.822;7.564;2024-01-15T08:10:02;0.00;99.90
4647;DHT22;2336;47.822;7.564;2024-01-15T08:12:29;0.00;99.90
4647;DHT22;2336;47.822;7.564;2024-01-15T08:14:56;0.00;99.90
4647;DHT22;2336;47.822;7.564;2024-01-15T08:17:22;0.10;99.90
4647;DHT22;2336;47.822;7.564;2024-01-15T08:19:53;0.10;99.90
4647;DHT22;2336;47.822;7.564;2024-01-15T08:22:20;0.10;99.90
4647;DHT22;2336;47.822;7.564;2024-01-15T08:24:48;0.10;99.90
4647;DHT22;2336;47.822;7.564;2024-01-15T08:27:15;0.20;99.90
4647;DHT22;2336;47.822;7.564;2024-01-15T08:29:42;0.10;99.90
4647;DHT22;2336;47.822;7.564;2024-01-15T08:32:08;0.20;99.90
4647;DHT22;2336;47.822;7.564;2024-01-15T08:34:39;0.20;99.90
4647;DHT22;2336;47.822;7.564;2024-01-15T08:37:06;0.20;99.90
4647;DHT22;2336;47.822;7.564;2024-01-15T08:39:32;0.20;99.90
4647;DHT22;2336;47.822;7.564;2024-01-15T08:42:01;0.20;99.90
4647;DHT22;2336;47.822;7.564;2024-01-15T08:44:28;0.20;99.90
4647;DHT22;2336;47.822;7.564;2024-01-15T08:46:55;0.30;99.90
4647;DHT22;2336;47.822;7.564;2024-01-15T08:49:22;0.30;99.90
4647;DHT22;2336;47.822;7.564;2024-01-15T08:51:48;0.30;99.90
4647;DHT22;2336;47.822;7.564;2024-01-15T08:54:15;0.30;99.90
4647;DHT22;2336;47.822;7.564;2024-01-15T08:56:43;0.40;99.90
4647;DHT22;2336;47.822;7.564;2024-01-15T08:59:11;0.40;99.90
4647;DHT22;2336;47.822;7.564;2024-01-15T09:01:38;0.40;99.90
4647;DHT22;2336;47.822;7.564;2024-01-15T09:04:05;0.40;99.90
4647;DHT22;2336;47.822;7.564;2024-01-15T09:06:32;0.40;99.90
4647;DHT22;2336;47.822;7.564;2024-01-15T09:08:59;0.40;99.90
4647;DHT22;2336;47.822;7.564;2024-01-15T09:11:25;0.50;99.90
4647;DHT22;2336;47.822;7.564;2024-01-15T09:13:52;0.50;99.90
4647;DHT22;2336;47.822;7.564;2024-01-15T09:16:20;0.50;99.90
4647;DHT22;2336;47.822;7.564;2024-01-15T09:18:47;0.50;99.90
4647;DHT22;2336;47.822;7.564;2024-01-15T09:21:14;0.60;99.90
4647;DHT22;2336;47.822;7.564;2024-01-15T09:23:41;0.60;99.90
4647;DHT22;2336;47.822;7.564;2024-01-15T09:26:08;0.60;99.90
4647;DHT22;2336;47.822;7.564;2024-01-15T09:28:35;0.60;99.90
4647;DHT22;2336;47.822;7.564;2024-01-15T09:31:01;0.70;99.90
4647;DHT22;2336;47.822;7.564;2024-01-15T09:33:29;0.70;99.90
4647;DHT22;2336;47.822;7.564;2024-01-15T09:35:56;0.80;99.90
4647;DHT22;2336;47.822;7.564;2024-01-15T09:38:23;0.80;99.90
4647;DHT22;2336;47.822;7.564;2024-01-15T09:40:50;0.80;99.90
4647;DHT22;2336;47.822;7.564;2024-01-15T09:43:18;0.80;99.90
4647;DHT22;2336;47.822;7.564;2024-01-15T09:45:45;0.90;99.90
4647;DHT22;2336;47.822;7.564;2024-01-15T09:48:13;0.90;99.90
4647;DHT22;2336;47.822;7.564;2024-01-15T09:50:41;0.90;99.90
4647;DHT22;2336;47.822;7.564;2024-01-15T09:53:09;0.90;99.90
4647;DHT22;2336;47.822;7.564;2024-01-15T09:55:36;1.00;99.90
4647;DHT22;2336;47.822;7.564;2024-01-15T09:58:04;1.00;99.90
4647;DHT22;2336;47.822;7.564;2024-01-15T10:00:30;1.00;99.90
4647;DHT22;2336;47.822;7.564;2024-01-15T10:02:59;1.10;99.90
4647;DHT22;2336;47.822;7.564;2024-01-15T10:05:26;1.10;99.90
4647;DHT22;2336;47.822;7.564;2024-01-15T10:07:54;1.10;99.90
4647;DHT22;2336;47.822;7.564;2024-01-15T10:10:23;1.10;99.90
4647;DHT22;2336;47.822;7.564;2024-01-15T10:12:49;1.20;99.90
4647;DHT22;2336;47.822;7.564;2024-01-15T10:15:16;1.20;99.90
4647;DHT22;2336;47.822;7.564;2024-01-15T10:17:43;1.30;99.90
4647;DHT22;2336;47.822;7.564;2024-01-15T10:20:11;1.30;99.90
4647;DHT22;2336;47.822;7.564;2024-01-15T10:22:40;1.30;99.90
4647;DHT22;2336;47.822;7.564;2024-01-15T10:25:11;1.30;99.90
4647;DHT22;2336;47.822;7.564;2024-01-15T10:27:39;1.40;99.90
4647;DHT22;2336;47.822;7.564;2024-01-15T10:30:07;1.40;99.90
4647;DHT22;2336;47.822;7.564;2024-01-15T10:32:34;1.50;99.90
4647;DHT22;2336;47.822;7.564;2024-01-15T10:35:01;1.60;99.90
4647;DHT22;2336;47.822;7.564;2024-01-15T10:37:27;1.70;99.90
4647;DHT22;2336;47.822;7.564;2024-01-15T10:39:54;1.70;99.90
4647;DHT22;2336;47.822;7.564;2024-01-15T10:42:23;1.80;99.90
4647;DHT22;2336;47.822;7.564;2024-01-15T10:44:49;1.80;99.90
4647;DHT22;2336;47.822;7.564;2024-01-15T10:47:16;1.90;99.90
4647;DHT22;2336;47.822;7.564;2024-01-15T10:49:45;1.90;99.90
4647;DHT22;2336;47.822;7.564;2024-01-15T10:52:12;2.00;99.90
4647;DHT22;2336;47.822;7.564;2024-01-15T10:54:40;2.00;99.90
4647;DHT22;2336;47.822;7.564;2024-01-15T10:57:08;2.00;99.90
4647;DHT22;2336;47.822;7.564;2024-01-15T10:59:36;2.00;99.90
4647;DHT22;2336;47.822;7.564;2024-01-15T11:02:04;2.10;99.90
4647;DHT22;2336;47.822;7.564;2024-01-15T11:04:32;2.00;99.90
4647;DHT22;2336;47.822;7.564;2024-01-15T11:06:58;2.10;99.90
4647;DHT22;2336;47.822;7.564;2024-01-15T11:09:26;2.10;99.90
4647;DHT22;2336;47.822;7.564;2024-01-15T11:12:07;2.00;99.90
4647;DHT22;2336;47.822;7.564;2024-01-15T11:14:38;2.00;99.90
4647;DHT22;2336;47.822;7.564;2024-01-15T11:17:05;2.00;99.90
4647;DHT22;2336;47.822;7.564;2024-01-15T11:19:38;2.00;99.90
4647;DHT22;2336;47.822;7.564;2024-01-15T11:22:07;2.00;99.90
4647;DHT22;2336;47.822;7.564;2024-01-15T11:24:38;2.00;99.90
4647;DHT22;2336;47.822;7.564;2024-01-15T11:27:05;2.10;99.90
4647;DHT22;2336;47.822;7.564;2024-01-15T11:29:34;2.00;99.90
4647;DHT22;2336;47.822;7.564;2024-01-15T11:32:04;2.10;99.90
4647;DHT22;2336;47.822;7.564;2024-01-15T11:34:50;2.10;99.90
4647;DHT22;2336;47.822;7.564;2024-01-15T11:37:16;2.10;99.90
4647;DHT22;2336;47.822;7.564;2024-01-15T11:39:44;2.10;99.90
4647;DHT22;2336;47.822;7.564;2024-01-15T11:42:13;2.10;99.90
4647;DHT22;2336;47.822;7.564;2024-01-15T11:44:40;2.10;99.90
4647;DHT22;2336;47.822;7.564;2024-01-15T11:47:09;2.20;99.90
4647;DHT22;2336;47.822;7.564;2024-01-15T11:52:59;2.30;99.90
4647;DHT22;2336;47.822;7.564;2024-01-15T11:55:27;2.30;99.90
4647;DHT22;2336;47.822;7.564;2024-01-15T12:01:08;2.40;99.90
4647;DHT22;2336;47.822;7.564;2024-01-15T12:03:37;2.50;99.90
4647;DHT22;2336;47.822;7.564;2024-01-15T12:06:05;2.60;99.90
4647;DHT22;2336;47.822;7.564;2024-01-15T12:08:33;2.60;99.90
4647;DHT22;2336;47.822;7.564;2024-01-15T12:11:00;2.60;99.90
4647;DHT22;2336;47.822;7.564;2024-01-15T12:13:28;2.60;99.90
4647;DHT22;2336;47.822;7.564;2024-01-15T12:15:54;2.70;99.90
4647;DHT22;2336;47.822;7.564;2024-01-15T12:18:21;2.70;99.90
4647;DHT22;2336;47.822;7.564;2024-01-15T12:20:49;2.60;99.90
4647;DHT22;2336;47.822;7.564;2024-01-15T12:23:17;2.60;99.90
4647;DHT22;2336;47.822;7.564;2024-01-15T12:25:44;2.50;99.90
4647;DHT22;2336;47.822;7.564;2024-01-15T12:28:12;2.60;99.90
4647;DHT22;2336;47.822;7.564;2024-01-15T12:30:39;2.60;99.90
4647;DHT22;2336;47.822;7.564;2024-01-15T12:33:07;2.70;99.90
4647;DHT22;2336;47.822;7.564;2024-01-15T12:35:34;2.60;99.90
4647;DHT22;2336;47.822;7.564;2024-01-15T12:38:03;2.60;99.90
4647;DHT22;2336;47.822;7.564;2024-01-15T12:40:31;2.60;99.90
4647;DHT22;2336;47.822;7.564;2024-01-15T12:42:58;2.60;99.90
4647;DHT22;2336;47.822;7.564;2024-01-15T12:45:25;2.60;99.90
4647;DHT22;2336;47.822;7.564;2024-01-15T12:47:52;2.60;99.90
4647;DHT22;2336;47.822;7.564;2024-01-15T12:50:24;2.60;99.90
4647;DHT22;2336;47.822;7.564;2024-01-15T12:52:52;2.60;99.90
4647;DHT22;2336;47.822;7.564;2024-01-15T12:55:20;2.60;99.90
4647;DHT22;2336;47.822;7.564;2024-01-15T12:57:46;2.60;99.90
4647;DHT22;2336;47.822;7.564;2024-01-15T13:00:15;2.60;99.90
4647;DHT22;2336;47.822;7.564;2024-01-15T13:02:42;2.60;99.90
4647;DHT22;2336;47.822;7.564;2024-01-15T13:05:09;2.60;99.90
4647;DHT22;2336;47.822;7.564;2024-01-15T13:07:37;2.70;99.90
4647;DHT22;2336;47.822;7.564;2024-01-15T13:10:04;2.70;99.90
4647;DHT22;2336;47.822;7.564;2024-01-15T13:12:33;2.70;99.90
4647;DHT22;2336;47.822;7.564;2024-01-15T13:15:00;2.60;99.90
4647;DHT22;2336;47.822;7.564;2024-01-15T13:17:28;2.60;99.90
4647;DHT22;2336;47.822;7.564;2024-01-15T13:19:55;2.60;99.90
4647;DHT22;2336;47.822;7.564;2024-01-15T13:22:22;2.60;99.90
4647;DHT22;2336;47.822;7.564;2024-01-15T13:24:55;2.50;99.90
4647;DHT22;2336;47.822;7.564;2024-01-15T13:27:21;2.50;99.90
4647;DHT22;2336;47.822;7.564;2024-01-15T13:29:49;2.50;99.90
4647;DHT22;2336;47.822;7.564;2024-01-15T13:32:21;2.50;99.90
4647;DHT22;2336;47.822;7.564;2024-01-15T13:34:49;2.50;99.90
4647;DHT22;2336;47.822;7.564;2024-01-15T13:37:16;2.50;99.90
4647;DHT22;2336;47.822;7.564;2024-01-15T13:39:42;2.40;99.90
4647;DHT22;2336;47.822;7.564;2024-01-15T13:42:09;2.50;99.90
4647;DHT22;2336;47.822;7.564;2024-01-15T13:44:37;2.50;99.90
4647;DHT22;2336;47.822;7.564;2024-01-15T13:47:05;2.50;99.90
4647;DHT22;2336;47.822;7.564;2024-01-15T13:49:32;2.50;99.90
4647;DHT22;2336;47.822;7.564;2024-01-15T13:51:59;2.50;99.90
4647;DHT22;2336;47.822;7.564;2024-01-15T13:54:29;2.50;99.90
4647;DHT22;2336;47.822;7.564;2024-01-15T13:56:56;2.40;99.90
4647;DHT22;2336;47.822;7.564;2024-01-15T13:59:24;2.50;99.90
4647;DHT22;2336;47.822;7.564;2024-01-15T14:01:51;2.40;99.90
4647;DHT22;2336;47.822;7.564;2024-01-15T14:04:19;2.40;99.90
4647;DHT22;2336;47.822;7.564;2024-01-15T14:06:46;2.40;99.90
4647;DHT22;2336;47.822;7.564;2024-01-15T14:09:13;2.40;99.90
4647;DHT22;2336;47.822;7.564;2024-01-15T14:11:40;2.40;99.90
4647;DHT22;2336;47.822;7.564;2024-01-15T14:14:07;2.40;99.90
4647;DHT22;2336;47.822;7.564;2024-01-15T14:16:34;2.40;99.90
4647;DHT22;2336;47.822;7.564;2024-01-15T14:19:01;2.40;99.90
4647;DHT22;2336;47.822;7.564;2024-01-15T14:21:30;2.30;99.90
4647;DHT22;2336;47.822;7.564;2024-01-15T14:23:57;2.30;99.90
4647;DHT22;2336;47.822;7.564;2024-01-15T14:26:24;2.30;99.90
4647;DHT22;2336;47.822;7.564;2024-01-15T14:28:50;2.20;99.90
4647;DHT22;2336;47.822;7.564;2024-01-15T14:31:17;2.20;99.90
4647;DHT22;2336;47.822;7.564;2024-01-15T14:33:45;2.20;99.90
4647;DHT22;2336;47.822;7.564;2024-01-15T14:36:12;2.20;99.90
4647;DHT22;2336;47.822;7.564;2024-01-15T14:38:40;2.20;99.90
4647;DHT22;2336;47.822;7.564;2024-01-15T14:41:07;2.20;99.90
4647;DHT22;2336;47.822;7.564;2024-01-15T14:43:34;2.20;99.90
4647;DHT22;2336;47.822;7.564;2024-01-15T14:46:01;2.10;99.90
4647;DHT22;2336;47.822;7.564;2024-01-15T14:48:27;2.10;99.90
4647;DHT22;2336;47.822;7.564;2024-01-15T14:50:55;2.20;99.90
4647;DHT22;2336;47.822;7.564;2024-01-15T14:53:21;2.10;99.90
4647;DHT22;2336;47.822;7.564;2024-01-15T14:55:50;2.10;99.90
4647;DHT22;2336;47.822;7.564;2024-01-15T14:58:17;2.10;99.90
4647;DHT22;2336;47.822;7.564;2024-01-15T15:00:43;2.00;99.90
4647;DHT22;2336;47.822;7.564;2024-01-15T15:03:11;2.00;99.90
4647;DHT22;2336;47.822;7.564;2024-01-15T15:05:39;2.00;99.90
4647;DHT22;2336;47.822;7.564;2024-01-15T15:08:06;1.90;99.90
4647;DHT22;2336;47.822;7.564;2024-01-15T15:10:34;1.90;99.90
4647;DHT22;2336;47.822;7.564;2024-01-15T15:13:02;1.80;99.90
4647;DHT22;2336;47.822;7.564;2024-01-15T15:15:29;1.80;99.90
4647;DHT22;2336;47.822;7.564;2024-01-15T15:17:56;1.80;99.90
4647;DHT22;2336;47.822;7.564;2024-01-15T15:20:23;1.80;99.90
4647;DHT22;2336;47.822;7.564;2024-01-15T15:22:49;1.80;99.90
4647;DHT22;2336;47.822;7.564;2024-01-15T15:25:20;1.70;99.90
4647;DHT22;2336;47.822;7.564;2024-01-15T15:27:47;1.70;99.90
4647;DHT22;2336;47.822;7.564;2024-01-15T15:30:15;1.70;99.90
4647;DHT22;2336;47.822;7.564;2024-01-15T15:32:42;1.60;99.90
4647;DHT22;2336;47.822;7.564;2024-01-15T15:35:09;1.50;99.90
4647;DHT22;2336;47.822;7.564;2024-01-15T15:37:36;1.50;99.90
4647;DHT22;2336;47.822;7.564;2024-01-15T15:40:03;1.50;99.90
4647;DHT22;2336;47.822;7.564;2024-01-15T15:42:33;1.50;99.90
4647;DHT22;2336;47.822;7.564;2024-01-15T15:45:00;1.50;99.90
4647;DHT22;2336;47.822;7.564;2024-01-15T15:47:28;1.50;99.90
4647;DHT22;2336;47.822;7.564;2024-01-15T15:49:55;1.40;99.90
4647;DHT22;2336;47.822;7.564;2024-01-15T15:52:22;1.40;99.90
4647;DHT22;2336;47.822;7.564;2024-01-15T15:54:49;1.40;99.90
4647;DHT22;2336;47.822;7.564;2024-01-15T15:57:15;1.40;99.90
4647;DHT22;2336;47.822;7.564;2024-01-15T15:59:42;1.40;99.90
4647;DHT22;2336;47.822;7.564;2024-01-15T16:02:09;1.30;99.90
4647;DHT22;2336;47.822;7.564;2024-01-15T16:04:37;1.30;99.90
4647;DHT22;2336;47.822;7.564;2024-01-15T16:07:04;1.30;99.90
4647;DHT22;2336;47.822;7.564;2024-01-15T16:09:35;1.20;99.90
4647;DHT22;2336;47.822;7.564;2024-01-15T16:12:02;1.20;99.90
4647;DHT22;2336;47.822;7.564;2024-01-15T16:14:29;1.20;99.90
4647;DHT22;2336;47.822;7.564;2024-01-15T16:16:56;1.20;99.90